sensor_id;sensor_type;location;lat;lon;timestamp;P1;durP1;ratioP1;P2;durP2;ratioP2
60336;SDS011;46978;50.288;28.624;2024-03-07T00:00:15;19.44;;;11.54;;
60336;SDS011;46978;50.288;28.624;2024-03-07T00:01:17;19.53;;;11.06;;
60336;SDS011;46978;50.288;28.624;2024-03-07T00:02:19;22.81;;;11.77;;
60336;SDS011;46978;50.288;28.624;2024-03-07T00:03:21;19.95;;;11.07;;
60336;SDS011;46978;50.288;28.624;2024-03-07T00:04:22;19.72;;;11.57;;
60336;SDS011;46978;50.288;28.624;2024-03-07T00:05:24;20.39;;;11.47;;
60336;SDS011;46978;50.288;28.624;2024-03-07T00:06:26;20.32;;;10.26;;
60336;SDS011;46978;50.288;28.624;2024-03-07T00:07:27;18.41;;;9.89;;
60336;SDS011;46978;50.288;28.624;2024-03-07T00:08:29;19.54;;;10.94;;
60336;SDS011;46978;50.288;28.624;2024-03-07T00:09:34;19.89;;;11.47;;
60336;SDS011;46978;50.288;28.624;2024-03-07T00:10:36;20.25;;;11.51;;
60336;SDS011;46978;50.288;28.624;2024-03-07T00:11:37;21.96;;;9.82;;
60336;SDS011;46978;50.288;28.624;2024-03-07T00:12:39;18.84;;;10.99;;
60336;SDS011;46978;50.288;28.624;2024-03-07T00:13:41;21.77;;;12.08;;
60336;SDS011;46978;50.288;28.624;2024-03-07T00:14:42;20.30;;;11.43;;
60336;SDS011;46978;50.288;28.624;2024-03-07T00:15:44;21.90;;;12.67;;
60336;SDS011;46978;50.288;28.624;2024-03-07T00:16:46;20.61;;;11.26;;
60336;SDS011;46978;50.288;28.624;2024-03-07T00:17:47;26.76;;;13.04;;
60336;SDS011;46978;50.288;28.624;2024-03-07T00:18:48;25.25;;;13.03;;
60336;SDS011;46978;50.288;28.624;2024-03-07T00:19:50;25.52;;;12.27;;
60336;SDS011;46978;50.288;28.624;2024-03-07T00:20:52;19.89;;;11.31;;
60336;SDS011;46978;50.288;28.624;2024-03-07T00:21:53;18.07;;;9.96;;
60336;SDS011;46978;50.288;28.624;2024-03-07T00:22:55;18.55;;;10.08;;
60336;SDS011;46978;50.288;28.624;2024-03-07T00:23:56;19.89;;;11.94;;
60336;SDS011;46978;50.288;28.624;2024-03-07T00:24:58;16.86;;;9.89;;
60336;SDS011;46978;50.288;28.624;2024-03-07T00:25:59;18.51;;;11.25;;
60336;SDS011;46978;50.288;28.624;2024-03-07T00:27:01;22.00;;;11.24;;
60336;SDS011;46978;50.288;28.624;2024-03-07T00:28:03;20.71;;;12.02;;
60336;SDS011;46978;50.288;28.624;2024-03-07T00:29:05;19.47;;;10.23;;
60336;SDS011;46978;50.288;28.624;2024-03-07T00:30:07;20.29;;;11.19;;
60336;SDS011;46978;50.288;28.624;2024-03-07T00:31:09;22.92;;;11.62;;
60336;SDS011;46978;50.288;28.624;2024-03-07T00:32:11;20.04;;;10.46;;
60336;SDS011;46978;50.288;28.624;2024-03-07T00:33:12;20.05;;;10.44;;
60336;SDS011;46978;50.288;28.624;2024-03-07T00:34:14;20.10;;;11.41;;
60336;SDS011;46978;50.288;28.624;2024-03-07T00:35:16;19.56;;;9.99;;
60336;SDS011;46978;50.288;28.624;2024-03-07T00:36:17;13.62;;;8.32;;
60336;SDS011;46978;50.288;28.624;2024-03-07T00:37:19;19.49;;;10.87;;
60336;SDS011;46978;50.288;28.624;2024-03-07T00:38:20;21.15;;;11.80;;
60336;SDS011;46978;50.288;28.624;2024-03-07T00:39:22;16.36;;;9.74;;
60336;SDS011;46978;50.288;28.624;2024-03-07T00:40:24;18.33;;;10.43;;
60336;SDS011;46978;50.288;28.624;2024-03-07T00:41:25;17.24;;;9.46;;
60336;SDS011;46978;50.288;28.624;2024-03-07T00:42:27;17.67;;;9.67;;
60336;SDS011;46978;50.288;28.624;2024-03-07T00:43:28;17.49;;;9.43;;
60336;SDS011;46978;50.288;28.624;2024-03-07T00:44:30;18.79;;;10.74;;
60336;SDS011;46978;50.288;28.624;2024-03-07T00:45:31;14.62;;;8.30;;
60336;SDS011;46978;50.288;28.624;2024-03-07T00:46:33;14.11;;;8.29;;
60336;SDS011;46978;50.288;28.624;2024-03-07T00:47:34;18.85;;;10.00;;
60336;SDS011;46978;50.288;28.624;2024-03-07T00:48:36;20.19;;;10.71;;
60336;SDS011;46978;50.288;28.624;2024-03-07T00:49:38;20.53;;;10.11;;
60336;SDS011;46978;50.288;28.624;2024-03-07T00:50:40;19.24;;;10.89;;
60336;SDS011;46978;50.288;28.624;2024-03-07T00:51:41;19.92;;;10.31;;
60336;SDS011;46978;50.288;28.624;2024-03-07T00:52:43;18.47;;;10.65;;
60336;SDS011;46978;50.288;28.624;2024-03-07T00:53:44;16.97;;;10.17;;
60336;SDS011;46978;50.288;28.624;2024-03-07T00:54:46;21.46;;;10.96;;
60336;SDS011;46978;50.288;28.624;2024-03-07T00:55:47;20.38;;;10.73;;
60336;SDS011;46978;50.288;28.624;2024-03-07T00:56:49;20.84;;;11.32;;
60336;SDS011;46978;50.288;28.624;2024-03-07T00:57:51;23.54;;;11.04;;
60336;SDS011;46978;50.288;28.624;2024-03-07T00:58:52;21.72;;;11.34;;
60336;SDS011;46978;50.288;28.624;2024-03-07T00:59:54;20.14;;;11.19;;
60336;SDS011;46978;50.288;28.624;2024-03-07T01:00:55;20.27;;;10.77;;
60336;SDS011;46978;50.288;28.624;2024-03-07T01:01:57;19.86;;;10.87;;
60336;SDS011;46978;50.288;28.624;2024-03-07T01:02:59;20.49;;;10.03;;
60336;SDS011;46978;50.288;28.624;2024-03-07T01:04:00;22.00;;;11.62;;
60336;SDS011;46978;50.288;28.624;2024-03-07T01:05:02;19.25;;;10.21;;
60336;SDS011;46978;50.288;28.624;2024-03-07T01:06:04;21.25;;;12.04;;
60336;SDS011;46978;50.288;28.624;2024-03-07T01:07:05;18.56;;;10.44;;
60336;SDS011;46978;50.288;28.624;2024-03-07T01:08:07;17.95;;;10.05;;
60336;SDS011;46978;50.288;28.624;2024-03-07T01:09:08;21.19;;;10.89;;
60336;SDS011;46978;50.288;28.624;2024-03-07T01:10:10;20.25;;;10.57;;
60336;SDS011;46978;50.288;28.624;2024-03-07T01:11:12;18.89;;;10.72;;
60336;SDS011;46978;50.288;28.624;2024-03-07T01:12:13;21.54;;;11.33;;
60336;SDS011;46978;50.288;28.624;2024-03-07T01:13:15;20.52;;;10.21;;
60336;SDS011;46978;50.288;28.624;2024-03-07T01:14:16;20.41;;;10.87;;
60336;SDS011;46978;50.288;28.624;2024-03-07T01:15:18;21.66;;;11.59;;
60336;SDS011;46978;50.288;28.624;2024-03-07T01:16:20;20.84;;;12.28;;
60336;SDS011;46978;50.288;28.624;2024-03-07T01:17:21;19.64;;;10.79;;
60336;SDS011;46978;50.288;28.624;2024-03-07T01:18:23;21.39;;;11.88;;
60336;SDS011;46978;50.288;28.624;2024-03-07T01:19:24;19.44;;;11.00;;
60336;SDS011;46978;50.288;28.624;2024-03-07T01:20:26;19.30;;;10.40;;
60336;SDS011;46978;50.288;28.624;2024-03-07T01:21:27;20.34;;;11.24;;
60336;SDS011;46978;50.288;28.624;2024-03-07T01:22:29;21.21;;;11.21;;
60336;SDS011;46978;50.288;28.624;2024-03-07T01:23:31;23.76;;;12.29;;
60336;SDS011;46978;50.288;28.624;2024-03-07T01:24:33;20.69;;;11.60;;
60336;SDS011;46978;50.288;28.624;2024-03-07T01:25:35;22.08;;;11.78;;
60336;SDS011;46978;50.288;28.624;2024-03-07T01:26:36;21.85;;;11.96;;
60336;SDS011;46978;50.288;28.624;2024-03-07T01:27:38;18.05;;;10.52;;
60336;SDS011;46978;50.288;28.624;2024-03-07T01:28:39;18.66;;;10.49;;
60336;SDS011;46978;50.288;28.624;2024-03-07T01:29:41;18.51;;;10.56;;
60336;SDS011;46978;50.288;28.624;2024-03-07T01:30:43;18.93;;;11.01;;
60336;SDS011;46978;50.288;28.624;2024-03-07T01:31:45;19.77;;;11.02;;
60336;SDS011;46978;50.288;28.624;2024-03-07T01:32:46;18.05;;;10.85;;
60336;SDS011;46978;50.288;28.624;2024-03-07T01:33:48;18.48;;;10.66;;
60336;SDS011;46978;50.288;28.624;2024-03-07T01:34:49;18.04;;;10.52;;
60336;SDS011;46978;50.288;28.624;2024-03-07T01:35:51;20.31;;;10.13;;
60336;SDS011;46978;50.288;28.624;2024-03-07T01:36:53;18.29;;;10.51;;
60336;SDS011;46978;50.288;28.624;2024-03-07T01:37:54;17.39;;;9.55;;
60336;SDS011;46978;50.288;28.624;2024-03-07T01:38:56;16.92;;;9.79;;
60336;SDS011;46978;50.288;28.624;2024-03-07T01:39:57;18.70;;;9.49;;
60336;SDS011;46978;50.288;28.624;2024-03-07T01:40:59;16.74;;;10.32;;
60336;SDS011;46978;50.288;28.624;2024-03-07T01:42:01;18.09;;;10.23;;
60336;SDS011;46978;50.288;28.624;2024-03-07T01:43:02;19.79;;;10.20;;
60336;SDS011;46978;50.288;28.624;2024-03-07T01:44:04;21.05;;;10.57;;
60336;SDS011;46978;50.288;28.624;2024-03-07T01:45:06;22.79;;;10.59;;
60336;SDS011;46978;50.288;28.624;2024-03-07T01:46:09;18.72;;;10.03;;
60336;SDS011;46978;50.288;28.624;2024-03-07T01:47:11;16.97;;;10.21;;
60336;SDS011;46978;50.288;28.624;2024-03-07T01:48:14;17.31;;;9.65;;
60336;SDS011;46978;50.288;28.624;2024-03-07T01:49:18;16.91;;;9.62;;
60336;SDS011;46978;50.288;28.624;2024-03-07T01:50:20;19.33;;;10.37;;
60336;SDS011;46978;50.288;28.624;2024-03-07T01:51:22;17.53;;;11.24;;
60336;SDS011;46978;50.288;28.624;2024-03-07T01:52:24;17.21;;;9.86;;
60336;SDS011;46978;50.288;28.624;2024-03-07T01:53:27;16.45;;;10.37;;
60336;SDS011;46978;50.288;28.624;2024-03-07T01:54:30;16.46;;;10.04;;
60336;SDS011;46978;50.288;28.624;2024-03-07T01:55:34;16.80;;;9.53;;
60336;SDS011;46978;50.288;28.624;2024-03-07T01:56:36;18.26;;;10.34;;
60336;SDS011;46978;50.288;28.624;2024-03-07T01:57:39;20.92;;;10.28;;
60336;SDS011;46978;50.288;28.624;2024-03-07T01:58:41;16.93;;;9.61;;
60336;SDS011;46978;50.288;28.624;2024-03-07T01:59:44;18.49;;;10.59;;
60336;SDS011;46978;50.288;28.624;2024-03-07T02:00:46;19.40;;;10.27;;
60336;SDS011;46978;50.288;28.624;2024-03-07T02:01:48;19.13;;;10.74;;
60336;SDS011;46978;50.288;28.624;2024-03-07T02:02:51;19.10;;;10.66;;
60336;SDS011;46978;50.288;28.624;2024-03-07T02:03:54;17.92;;;10.75;;
60336;SDS011;46978;50.288;28.624;2024-03-07T02:04:55;16.46;;;9.78;;
60336;SDS011;46978;50.288;28.624;2024-03-07T02:05:57;20.36;;;10.63;;
60336;SDS011;46978;50.288;28.624;2024-03-07T02:06:59;19.67;;;10.62;;
60336;SDS011;46978;50.288;28.624;2024-03-07T02:08:00;18.74;;;10.17;;
60336;SDS011;46978;50.288;28.624;2024-03-07T02:09:02;17.01;;;9.61;;
60336;SDS011;46978;50.288;28.624;2024-03-07T02:10:04;16.98;;;9.98;;
60336;SDS011;46978;50.288;28.624;2024-03-07T02:11:07;20.39;;;11.06;;
60336;SDS011;46978;50.288;28.624;2024-03-07T02:12:08;19.12;;;10.09;;
60336;SDS011;46978;50.288;28.624;2024-03-07T02:13:09;18.22;;;10.57;;
60336;SDS011;46978;50.288;28.624;2024-03-07T02:14:12;19.65;;;10.84;;
60336;SDS011;46978;50.288;28.624;2024-03-07T02:15:13;18.71;;;9.61;;
60336;SDS011;46978;50.288;28.624;2024-03-07T02:16:15;16.73;;;9.45;;
60336;SDS011;46978;50.288;28.624;2024-03-07T02:17:17;17.46;;;9.92;;
60336;SDS011;46978;50.288;28.624;2024-03-07T02:18:22;17.34;;;10.95;;
60336;SDS011;46978;50.288;28.624;2024-03-07T02:19:24;16.67;;;9.59;;
60336;SDS011;46978;50.288;28.624;2024-03-07T02:20:27;16.66;;;9.63;;
60336;SDS011;46978;50.288;28.624;2024-03-07T02:21:28;19.23;;;10.60;;
60336;SDS011;46978;50.288;28.624;2024-03-07T02:22:30;16.04;;;9.88;;
60336;SDS011;46978;50.288;28.624;2024-03-07T02:23:32;17.28;;;9.94;;
60336;SDS011;46978;50.288;28.624;2024-03-07T02:24:33;16.01;;;9.39;;
60336;SDS011;46978;50.288;28.624;2024-03-07T02:25:35;18.11;;;11.24;;
60336;SDS011;46978;50.288;28.624;2024-03-07T02:26:36;16.94;;;9.30;;
60336;SDS011;46978;50.288;28.624;2024-03-07T02:27:38;19.44;;;10.36;;
60336;SDS011;46978;50.288;28.624;2024-03-07T02:28:40;18.81;;;10.11;;
60336;SDS011;46978;50.288;28.624;2024-03-07T02:29:41;17.58;;;9.96;;
60336;SDS011;46978;50.288;28.624;2024-03-07T02:30:43;18.86;;;9.37;;
60336;SDS011;46978;50.288;28.624;2024-03-07T02:31:44;14.86;;;8.96;;
60336;SDS011;46978;50.288;28.624;2024-03-07T02:32:46;16.40;;;9.65;;
60336;SDS011;46978;50.288;28.624;2024-03-07T02:33:48;15.59;;;9.34;;
60336;SDS011;46978;50.288;28.624;2024-03-07T02:34:49;13.00;;;8.26;;
60336;SDS011;46978;50.288;28.624;2024-03-07T02:35:51;13.73;;;7.86;;
60336;SDS011;46978;50.288;28.624;2024-03-07T02:36:53;12.23;;;7.09;;
60336;SDS011;46978;50.288;28.624;2024-03-07T02:37:54;11.14;;;7.26;;
60336;SDS011;46978;50.288;28.624;2024-03-07T02:38:56;13.96;;;7.74;;
60336;SDS011;46978;50.288;28.624;2024-03-07T02:39:58;11.51;;;6.86;;
60336;SDS011;46978;50.288;28.624;2024-03-07T02:41:00;12.88;;;7.81;;
60336;SDS011;46978;50.288;28.624;2024-03-07T02:42:01;14.26;;;7.32;;
60336;SDS011;46978;50.288;28.624;2024-03-07T02:43:03;14.10;;;8.28;;
60336;SDS011;46978;50.288;28.624;2024-03-07T02:44:04;12.59;;;7.14;;
60336;SDS011;46978;50.288;28.624;2024-03-07T02:45:06;13.49;;;8.21;;
60336;SDS011;46978;50.288;28.624;2024-03-07T02:46:09;12.64;;;7.94;;
60336;SDS011;46978;50.288;28.624;2024-03-07T02:47:11;13.16;;;7.81;;
60336;SDS011;46978;50.288;28.624;2024-03-07T02:48:13;13.00;;;7.80;;
60336;SDS011;46978;50.288;28.624;2024-03-07T02:49:14;11.59;;;7.51;;
60336;SDS011;46978;50.288;28.624;2024-03-07T02:50:16;12.49;;;7.62;;
60336;SDS011;46978;50.288;28.624;2024-03-07T02:51:17;11.44;;;6.70;;
60336;SDS011;46978;50.288;28.624;2024-03-07T02:52:19;13.06;;;7.51;;
60336;SDS011;46978;50.288;28.624;2024-03-07T02:53:20;13.64;;;7.86;;
60336;SDS011;46978;50.288;28.624;2024-03-07T02:54:22;14.43;;;7.81;;
60336;SDS011;46978;50.288;28.624;2024-03-07T02:55:25;12.07;;;7.50;;
60336;SDS011;46978;50.288;28.624;2024-03-07T02:56:27;14.49;;;7.80;;
60336;SDS011;46978;50.288;28.624;2024-03-07T02:57:29;11.61;;;6.76;;
60336;SDS011;46978;50.288;28.624;2024-03-07T02:58:30;12.31;;;7.60;;
60336;SDS011;46978;50.288;28.624;2024-03-07T02:59:32;12.96;;;6.51;;
60336;SDS011;46978;50.288;28.624;2024-03-07T03:00:34;13.89;;;7.63;;
60336;SDS011;46978;50.288;28.624;2024-03-07T03:01:36;10.98;;;6.92;;
60336;SDS011;46978;50.288;28.624;2024-03-07T03:02:37;15.11;;;8.65;;
60336;SDS011;46978;50.288;28.624;2024-03-07T03:03:41;12.74;;;7.36;;
60336;SDS011;46978;50.288;28.624;2024-03-07T03:04:43;13.89;;;7.61;;
60336;SDS011;46978;50.288;28.624;2024-03-07T03:05:44;12.34;;;7.22;;
60336;SDS011;46978;50.288;28.624;2024-03-07T03:06:46;15.06;;;7.51;;
60336;SDS011;46978;50.288;28.624;2024-03-07T03:07:48;9.97;;;5.66;;
60336;SDS011;46978;50.288;28.624;2024-03-07T03:08:50;12.09;;;7.43;;
60336;SDS011;46978;50.288;28.624;2024-03-07T03:09:51;12.10;;;7.26;;
60336;SDS011;46978;50.288;28.624;2024-03-07T03:10:53;12.04;;;7.02;;
60336;SDS011;46978;50.288;28.624;2024-03-07T03:11:56;13.54;;;7.57;;
60336;SDS011;46978;50.288;28.624;2024-03-07T03:12:57;11.47;;;6.95;;
60336;SDS011;46978;50.288;28.624;2024-03-07T03:15:20;16.13;;;7.28;;
60336;SDS011;46978;50.288;28.624;2024-03-07T03:16:22;11.45;;;6.90;;
60336;SDS011;46978;50.288;28.624;2024-03-07T03:17:24;13.31;;;8.60;;
60336;SDS011;46978;50.288;28.624;2024-03-07T03:18:25;14.65;;;7.95;;
60336;SDS011;46978;50.288;28.624;2024-03-07T03:19:27;12.22;;;7.17;;
60336;SDS011;46978;50.288;28.624;2024-03-07T03:20:28;11.84;;;7.71;;
60336;SDS011;46978;50.288;28.624;2024-03-07T03:21:30;12.12;;;7.44;;
60336;SDS011;46978;50.288;28.624;2024-03-07T03:22:32;13.28;;;7.53;;
60336;SDS011;46978;50.288;28.624;2024-03-07T03:23:33;14.46;;;8.06;;
60336;SDS011;46978;50.288;28.624;2024-03-07T03:24:35;12.85;;;7.12;;
60336;SDS011;46978;50.288;28.624;2024-03-07T03:25:37;13.35;;;7.49;;
60336;SDS011;46978;50.288;28.624;2024-03-07T03:26:39;13.57;;;7.99;;
60336;SDS011;46978;50.288;28.624;2024-03-07T03:27:41;14.53;;;8.44;;
60336;SDS011;46978;50.288;28.624;2024-03-07T03:28:42;16.78;;;8.95;;
60336;SDS011;46978;50.288;28.624;2024-03-07T03:29:44;13.35;;;7.59;;
60336;SDS011;46978;50.288;28.624;2024-03-07T03:30:45;15.77;;;8.51;;
60336;SDS011;46978;50.288;28.624;2024-03-07T03:31:47;14.19;;;8.29;;
60336;SDS011;46978;50.288;28.624;2024-03-07T03:32:48;13.79;;;8.14;;
60336;SDS011;46978;50.288;28.624;2024-03-07T03:33:50;15.12;;;8.39;;
60336;SDS011;46978;50.288;28.624;2024-03-07T03:34:52;12.86;;;7.63;;
60336;SDS011;46978;50.288;28.624;2024-03-07T03:35:53;13.32;;;7.90;;
60336;SDS011;46978;50.288;28.624;2024-03-07T03:36:55;12.80;;;7.06;;
60336;SDS011;46978;50.288;28.624;2024-03-07T03:37:56;14.73;;;7.07;;
60336;SDS011;46978;50.288;28.624;2024-03-07T03:38:58;12.86;;;7.36;;
60336;SDS011;46978;50.288;28.624;2024-03-07T03:39:59;13.51;;;7.96;;
60336;SDS011;46978;50.288;28.624;2024-03-07T03:41:01;15.26;;;8.24;;
60336;SDS011;46978;50.288;28.624;2024-03-07T03:42:03;12.72;;;8.11;;
60336;SDS011;46978;50.288;28.624;2024-03-07T03:43:05;12.68;;;8.51;;
60336;SDS011;46978;50.288;28.624;2024-03-07T03:44:06;13.70;;;8.05;;
60336;SDS011;46978;50.288;28.624;2024-03-07T03:45:09;14.18;;;7.46;;
60336;SDS011;46978;50.288;28.624;2024-03-07T03:46:11;14.94;;;8.34;;
60336;SDS011;46978;50.288;28.624;2024-03-07T03:47:13;12.48;;;6.77;;
60336;SDS011;46978;50.288;28.624;2024-03-07T03:48:15;12.71;;;8.05;;
60336;SDS011;46978;50.288;28.624;2024-03-07T03:49:16;16.57;;;7.78;;
60336;SDS011;46978;50.288;28.624;2024-03-07T03:50:18;12.21;;;7.08;;
60336;SDS011;46978;50.288;28.624;2024-03-07T03:51:20;12.45;;;7.33;;
60336;SDS011;46978;50.288;28.624;2024-03-07T03:52:21;11.16;;;7.22;;
60336;SDS011;46978;50.288;28.624;2024-03-07T03:53:23;14.01;;;8.20;;
60336;SDS011;46978;50.288;28.624;2024-03-07T03:54:24;14.83;;;8.83;;
60336;SDS011;46978;50.288;28.624;2024-03-07T03:55:27;14.15;;;8.01;;
60336;SDS011;46978;50.288;28.624;2024-03-07T03:56:29;12.24;;;7.33;;
60336;SDS011;46978;50.288;28.624;2024-03-07T03:57:31;12.07;;;7.19;;
60336;SDS011;46978;50.288;28.624;2024-03-07T03:58:34;16.04;;;8.24;;
60336;SDS011;46978;50.288;28.624;2024-03-07T03:59:35;15.21;;;8.13;;
60336;SDS011;46978;50.288;28.624;2024-03-07T04:00:37;13.02;;;7.67;;
60336;SDS011;46978;50.288;28.624;2024-03-07T04:01:38;12.05;;;7.56;;
60336;SDS011;46978;50.288;28.624;2024-03-07T04:03:44;12.14;;;7.58;;
60336;SDS011;46978;50.288;28.624;2024-03-07T04:04:45;12.63;;;8.06;;
60336;SDS011;46978;50.288;28.624;2024-03-07T04:05:47;13.94;;;7.90;;
60336;SDS011;46978;50.288;28.624;2024-03-07T04:06:49;11.55;;;7.40;;
60336;SDS011;46978;50.288;28.624;2024-03-07T04:07:50;13.11;;;7.54;;
60336;SDS011;46978;50.288;28.624;2024-03-07T04:08:52;14.06;;;7.24;;
60336;SDS011;46978;50.288;28.624;2024-03-07T04:09:53;13.26;;;7.81;;
60336;SDS011;46978;50.288;28.624;2024-03-07T04:10:55;11.74;;;6.13;;
60336;SDS011;46978;50.288;28.624;2024-03-07T04:11:57;12.85;;;7.06;;
60336;SDS011;46978;50.288;28.624;2024-03-07T04:12:58;13.21;;;7.97;;
60336;SDS011;46978;50.288;28.624;2024-03-07T04:14:00;12.24;;;7.34;;
60336;SDS011;46978;50.288;28.624;2024-03-07T04:15:01;16.41;;;8.50;;
60336;SDS011;46978;50.288;28.624;2024-03-07T04:16:03;13.66;;;8.07;;
60336;SDS011;46978;50.288;28.624;2024-03-07T04:17:05;12.59;;;8.07;;
60336;SDS011;46978;50.288;28.624;2024-03-07T04:18:06;14.37;;;7.54;;
60336;SDS011;46978;50.288;28.624;2024-03-07T04:19:08;12.32;;;7.86;;
60336;SDS011;46978;50.288;28.624;2024-03-07T04:20:10;12.56;;;6.79;;
60336;SDS011;46978;50.288;28.624;2024-03-07T04:21:12;10.68;;;6.51;;
60336;SDS011;46978;50.288;28.624;2024-03-07T04:22:14;12.71;;;7.47;;
60336;SDS011;46978;50.288;28.624;2024-03-07T04:23:15;12.21;;;7.35;;
60336;SDS011;46978;50.288;28.624;2024-03-07T04:24:17;11.01;;;7.10;;
60336;SDS011;46978;50.288;28.624;2024-03-07T04:25:20;10.95;;;6.78;;
60336;SDS011;46978;50.288;28.624;2024-03-07T04:26:22;12.85;;;7.11;;
60336;SDS011;46978;50.288;28.624;2024-03-07T04:27:26;10.72;;;6.03;;
60336;SDS011;46978;50.288;28.624;2024-03-07T04:28:28;9.92;;;5.67;;
60336;SDS011;46978;50.288;28.624;2024-03-07T04:29:30;9.92;;;6.12;;
60336;SDS011;46978;50.288;28.624;2024-03-07T04:30:32;10.36;;;6.23;;
60336;SDS011;46978;50.288;28.624;2024-03-07T04:31:34;11.54;;;6.83;;
60336;SDS011;46978;50.288;28.624;2024-03-07T04:32:40;13.61;;;6.85;;
60336;SDS011;46978;50.288;28.624;2024-03-07T04:33:39;12.30;;;6.97;;
60336;SDS011;46978;50.288;28.624;2024-03-07T04:34:41;11.46;;;7.21;;
60336;SDS011;46978;50.288;28.624;2024-03-07T04:35:42;12.76;;;7.45;;
60336;SDS011;46978;50.288;28.624;2024-03-07T04:36:44;14.25;;;7.66;;
60336;SDS011;46978;50.288;28.624;2024-03-07T04:37:46;11.28;;;6.55;;
60336;SDS011;46978;50.288;28.624;2024-03-07T04:38:47;12.98;;;6.84;;
60336;SDS011;46978;50.288;28.624;2024-03-07T04:39:49;12.31;;;7.49;;
60336;SDS011;46978;50.288;28.624;2024-03-07T04:40:51;11.57;;;6.51;;
60336;SDS011;46978;50.288;28.624;2024-03-07T04:41:52;9.84;;;6.52;;
60336;SDS011;46978;50.288;28.624;2024-03-07T04:42:54;10.45;;;6.54;;
60336;SDS011;46978;50.288;28.624;2024-03-07T04:43:55;11.79;;;6.45;;
60336;SDS011;46978;50.288;28.624;2024-03-07T04:44:57;10.49;;;6.05;;
60336;SDS011;46978;50.288;28.624;2024-03-07T04:45:58;8.31;;;4.84;;
60336;SDS011;46978;50.288;28.624;2024-03-07T04:47:00;10.78;;;6.27;;
60336;SDS011;46978;50.288;28.624;2024-03-07T04:48:02;12.46;;;6.79;;
60336;SDS011;46978;50.288;28.624;2024-03-07T04:49:04;11.48;;;7.11;;
60336;SDS011;46978;50.288;28.624;2024-03-07T04:50:06;10.77;;;6.71;;
60336;SDS011;46978;50.288;28.624;2024-03-07T04:51:09;14.13;;;8.20;;
60336;SDS011;46978;50.288;28.624;2024-03-07T04:52:10;12.03;;;7.28;;
60336;SDS011;46978;50.288;28.624;2024-03-07T04:53:12;13.31;;;6.92;;
60336;SDS011;46978;50.288;28.624;2024-03-07T04:54:14;14.54;;;7.94;;
60336;SDS011;46978;50.288;28.624;2024-03-07T04:55:16;12.28;;;7.20;;
60336;SDS011;46978;50.288;28.624;2024-03-07T04:56:18;12.83;;;7.17;;
60336;SDS011;46978;50.288;28.624;2024-03-07T04:57:19;12.16;;;6.96;;
60336;SDS011;46978;50.288;28.624;2024-03-07T04:58:21;13.15;;;8.01;;
60336;SDS011;46978;50.288;28.624;2024-03-07T04:59:22;14.31;;;6.78;;
60336;SDS011;46978;50.288;28.624;2024-03-07T05:00:24;13.01;;;7.13;;
60336;SDS011;46978;50.288;28.624;2024-03-07T05:01:26;11.35;;;6.77;;
60336;SDS011;46978;50.288;28.624;2024-03-07T05:02:27;11.54;;;7.21;;
60336;SDS011;46978;50.288;28.624;2024-03-07T05:03:29;11.64;;;7.26;;
60336;SDS011;46978;50.288;28.624;2024-03-07T05:04:30;11.99;;;7.06;;
60336;SDS011;46978;50.288;28.624;2024-03-07T05:05:32;11.92;;;6.84;;
60336;SDS011;46978;50.288;28.624;2024-03-07T05:06:34;13.65;;;7.44;;
60336;SDS011;46978;50.288;28.624;2024-03-07T05:07:35;11.72;;;6.91;;
60336;SDS011;46978;50.288;28.624;2024-03-07T05:08:37;10.69;;;6.94;;
60336;SDS011;46978;50.288;28.624;2024-03-07T05:09:38;11.47;;;6.54;;
60336;SDS011;46978;50.288;28.624;2024-03-07T05:10:40;12.69;;;7.46;;
60336;SDS011;46978;50.288;28.624;2024-03-07T05:11:42;12.32;;;7.31;;
60336;SDS011;46978;50.288;28.624;2024-03-07T05:12:43;13.75;;;7.51;;
60336;SDS011;46978;50.288;28.624;2024-03-07T05:13:45;12.76;;;7.16;;
60336;SDS011;46978;50.288;28.624;2024-03-07T05:14:46;11.19;;;6.33;;
60336;SDS011;46978;50.288;28.624;2024-03-07T05:15:48;14.14;;;8.04;;
60336;SDS011;46978;50.288;28.624;2024-03-07T05:16:49;11.73;;;7.21;;
60336;SDS011;46978;50.288;28.624;2024-03-07T05:17:51;11.40;;;6.95;;
60336;SDS011;46978;50.288;28.624;2024-03-07T05:18:53;11.75;;;7.07;;
60336;SDS011;46978;50.288;28.624;2024-03-07T05:19:55;12.97;;;7.16;;
60336;SDS011;46978;50.288;28.624;2024-03-07T05:20:57;11.76;;;6.89;;
60336;SDS011;46978;50.288;28.624;2024-03-07T05:21:58;10.52;;;6.56;;
60336;SDS011;46978;50.288;28.624;2024-03-07T05:23:00;13.23;;;6.73;;
60336;SDS011;46978;50.288;28.624;2024-03-07T05:24:02;10.46;;;6.73;;
60336;SDS011;46978;50.288;28.624;2024-03-07T05:25:05;17.83;;;8.18;;
60336;SDS011;46978;50.288;28.624;2024-03-07T05:26:07;14.77;;;8.31;;
60336;SDS011;46978;50.288;28.624;2024-03-07T05:27:09;12.65;;;8.02;;
60336;SDS011;46978;50.288;28.624;2024-03-07T05:28:10;11.74;;;6.86;;
60336;SDS011;46978;50.288;28.624;2024-03-07T05:29:12;12.16;;;7.29;;
60336;SDS011;46978;50.288;28.624;2024-03-07T05:30:14;11.67;;;6.86;;
60336;SDS011;46978;50.288;28.624;2024-03-07T05:31:15;13.09;;;7.19;;
60336;SDS011;46978;50.288;28.624;2024-03-07T05:32:20;12.34;;;7.47;;
60336;SDS011;46978;50.288;28.624;2024-03-07T05:33:26;13.89;;;7.92;;
60336;SDS011;46978;50.288;28.624;2024-03-07T05:34:27;10.36;;;6.49;;
60336;SDS011;46978;50.288;28.624;2024-03-07T05:35:29;12.44;;;7.07;;
60336;SDS011;46978;50.288;28.624;2024-03-07T05:36:31;10.09;;;6.47;;
60336;SDS011;46978;50.288;28.624;2024-03-07T05:37:32;9.80;;;6.69;;
60336;SDS011;46978;50.288;28.624;2024-03-07T05:38:34;9.74;;;6.05;;
60336;SDS011;46978;50.288;28.624;2024-03-07T05:39:35;11.42;;;6.39;;
60336;SDS011;46978;50.288;28.624;2024-03-07T05:40:37;11.11;;;6.47;;
60336;SDS011;46978;50.288;28.624;2024-03-07T05:41:39;8.91;;;5.29;;
60336;SDS011;46978;50.288;28.624;2024-03-07T05:42:41;10.67;;;6.67;;
60336;SDS011;46978;50.288;28.624;2024-03-07T05:43:42;10.63;;;6.26;;
60336;SDS011;46978;50.288;28.624;2024-03-07T05:44:44;11.51;;;7.46;;
60336;SDS011;46978;50.288;28.624;2024-03-07T05:45:46;12.61;;;6.64;;
60336;SDS011;46978;50.288;28.624;2024-03-07T05:46:48;11.18;;;6.06;;
60336;SDS011;46978;50.288;28.624;2024-03-07T05:47:49;11.74;;;6.36;;
60336;SDS011;46978;50.288;28.624;2024-03-07T05:48:51;15.96;;;6.94;;
60336;SDS011;46978;50.288;28.624;2024-03-07T05:49:53;12.80;;;7.44;;
60336;SDS011;46978;50.288;28.624;2024-03-07T05:50:54;12.16;;;7.71;;
60336;SDS011;46978;50.288;28.624;2024-03-07T05:51:56;11.74;;;6.85;;
60336;SDS011;46978;50.288;28.624;2024-03-07T05:52:57;10.85;;;7.15;;
60336;SDS011;46978;50.288;28.624;2024-03-07T05:53:59;14.35;;;7.94;;
60336;SDS011;46978;50.288;28.624;2024-03-07T05:55:00;11.57;;;7.50;;
60336;SDS011;46978;50.288;28.624;2024-03-07T05:56:02;10.90;;;6.91;;
60336;SDS011;46978;50.288;28.624;2024-03-07T05:57:04;10.65;;;6.59;;
60336;SDS011;46978;50.288;28.624;2024-03-07T05:58:06;15.47;;;7.47;;
60336;SDS011;46978;50.288;28.624;2024-03-07T05:59:08;16.91;;;7.77;;
60336;SDS011;46978;50.288;28.624;2024-03-07T06:00:10;15.93;;;8.35;;
60336;SDS011;46978;50.288;28.624;2024-03-07T06:01:13;11.01;;;7.01;;
60336;SDS011;46978;50.288;28.624;2024-03-07T06:02:15;13.13;;;7.00;;